Time;durP1;ratioP1;P1;durP2;ratioP2;P2;SDS_P1;SDS_P2;PMS_P1;PMS_P2;Temp;Humidity;BMP_temperature;BMP_pressure;BME280_temperature;BME280_humidity;BME280_pressure;Samples;Min_cycle;Max_cycle;Signal;HPM_P1;HPM_P2
2021/03/09 00:01:52;;;;;;;11.07;6.95;;;7.40;99.90;;;;;;5007463;28;20019;-81
2021/03/09 00:04:18;;;;;;;9.25;7.00;;;7.30;99.90;;;;;;5011990;28;20037;-81
2021/03/09 00:06:44;;;;;;;9.95;7.18;;;7.30;99.90;;;;;;5008035;28;20056;-81
2021/03/09 00:09:09;;;;;;;9.45;7.65;;;7.30;99.90;;;;;;5008907;28;20029;-81
2021/03/09 00:11:35;;;;;;;10.98;7.82;;;7.30;99.90;;;;;;5009990;28;20045;-81
2021/03/09 00:14:01;;;;;;;10.38;7.53;;;7.40;99.90;;;;;;5011367;28;20026;-81
2021/03/09 00:16:26;;;;;;;11.07;7.93;;;7.40;99.90;;;;;;5009967;28;20014;-81
2021/03/09 00:18:52;;;;;;;10.82;7.35;;;7.40;99.90;;;;;;5009734;28;20026;-81
2021/03/09 00:21:18;;;;;;;13.88;7.82;;;7.30;99.90;;;;;;5003060;28;20025;-81
2021/03/09 00:23:44;;;;;;;9.85;6.90;;;7.30;99.90;;;;;;5012844;28;20044;-81
2021/03/09 00:26:09;;;;;;;10.35;7.45;;;7.30;99.90;;;;;;5010375;28;20026;-81
2021/03/09 00:28:35;;;;;;;13.80;8.05;;;7.40;99.90;;;;;;5004581;28;20037;-81
2021/03/09 00:31:01;;;;;;;11.50;7.68;;;7.40;99.90;;;;;;5003208;28;20038;-81
2021/03/09 00:33:27;;;;;;;9.77;7.55;;;7.30;99.90;;;;;;5005485;28;20395;-81
2021/03/09 00:35:53;;;;;;;11.50;7.88;;;7.30;99.90;;;;;;5005964;28;20045;-81
2021/03/09 00:38:19;;;;;;;8.57;6.70;;;7.30;99.90;;;;;;5006988;28;20732;-81
2021/03/09 00:40:45;;;;;;;8.23;6.75;;;7.20;99.90;;;;;;5008434;28;20030;-81
2021/03/09 00:43:10;;;;;;;9.23;7.28;;;7.30;99.90;;;;;;5007243;28;20109;-82
2021/03/09 00:45:36;;;;;;;9.40;7.35;;;7.30;99.90;;;;;;5003792;28;20491;-82
2021/03/09 00:48:02;;;;;;;11.88;7.00;;;7.20;99.90;;;;;;5011988;28;20041;-82
2021/03/09 00:50:27;;;;;;;10.15;7.32;;;7.20;99.90;;;;;;5013073;28;20418;-81
2021/03/09 00:52:53;;;;;;;10.05;7.70;;;7.10;99.90;;;;;;5001516;28;20029;-81
2021/03/09 00:55:19;;;;;;;13.65;7.88;;;7.20;99.90;;;;;;5006116;28;20425;-81
2021/03/09 00:57:57;;;;;;;10.50;8.02;;;7.20;99.90;;;;;;5007901;28;20025;-80
2021/03/09 01:00:24;;;;;;;11.43;7.78;;;7.30;99.90;;;;;;5012203;28;20359;-81
2021/03/09 01:02:50;;;;;;;10.45;7.47;;;7.30;99.90;;;;;;5012900;28;20026;-81
2021/03/09 01:05:16;;;;;;;9.18;7.13;;;7.40;99.90;;;;;;5010863;28;20033;-81
2021/03/09 01:07:42;;;;;;;8.73;6.45;;;7.40;99.90;;;;;;5002663;28;20079;-81
2021/03/09 01:10:09;;;;;;;8.90;7.38;;;7.30;99.90;;;;;;5008982;28;20022;-81
2021/03/09 01:12:34;;;;;;;9.73;6.97;;;7.30;99.90;;;;;;5003955;28;20508;-81
2021/03/09 01:15:00;;;;;;;11.48;7.47;;;7.30;99.90;;;;;;5008483;28;20057;-81
2021/03/09 01:17:26;;;;;;;10.90;7.63;;;7.40;99.90;;;;;;5005233;28;20036;-82
2021/03/09 01:19:51;;;;;;;11.98;7.18;;;7.30;99.90;;;;;;5008623;28;20021;-81
2021/03/09 01:22:17;;;;;;;9.95;8.43;;;7.30;99.90;;;;;;5002695;28;20078;-81
2021/03/09 01:24:43;;;;;;;9.25;6.93;;;7.30;99.90;;;;;;5001226;28;20025;-81
2021/03/09 01:27:11;;;;;;;10.32;7.75;;;7.30;99.90;;;;;;5005351;28;20096;-81
2021/03/09 01:29:37;;;;;;;12.88;7.50;;;7.40;99.90;;;;;;5002559;28;20024;-81
2021/03/09 01:32:04;;;;;;;9.63;7.32;;;7.40;99.90;;;;;;5004866;28;20037;-81
2021/03/09 01:34:30;;;;;;;11.75;8.02;;;7.40;99.90;;;;;;5010304;28;20037;-80
2021/03/09 01:36:56;;;;;;;9.05;6.95;;;7.30;99.90;;;;;;5002470;28;20068;-81
2021/03/09 01:39:21;;;;;;;11.65;7.70;;;7.30;99.90;;;;;;5001484;28;20053;-81
2021/03/09 01:41:47;;;;;;;7.30;6.57;;;7.30;99.90;;;;;;5007930;28;20018;-81
2021/03/09 01:44:13;;;;;;;10.93;7.70;;;7.30;99.90;;;;;;5013129;28;20029;-81
2021/03/09 01:46:41;;;;;;;11.02;7.50;;;7.30;99.90;;;;;;5005218;28;20398;-82
2021/03/09 01:49:07;;;;;;;11.65;7.68;;;7.30;99.90;;;;;;5001699;28;20543;-81
2021/03/09 01:51:33;;;;;;;13.50;7.35;;;7.30;99.90;;;;;;5008340;28;20113;-81
2021/03/09 01:53:59;;;;;;;12.77;7.63;;;7.20;99.90;;;;;;5004063;28;20109;-81
2021/03/09 01:56:26;;;;;;;10.63;8.13;;;7.20;99.90;;;;;;5004522;28;20046;-81
2021/03/09 01:58:53;;;;;;;9.52;8.48;;;7.30;99.90;;;;;;5010713;28;20017;-81
2021/03/09 02:01:19;;;;;;;14.05;7.05;;;7.30;99.90;;;;;;5009930;28;20514;-81
2021/03/09 02:03:45;;;;;;;15.40;7.57;;;7.20;99.90;;;;;;5001435;28;20017;-81
2021/03/09 02:06:15;;;;;;;9.32;6.68;;;7.30;99.90;;;;;;5005041;28;20030;-81
2021/03/09 02:08:42;;;;;;;8.80;7.05;;;7.20;99.90;;;;;;5009667;28;20116;-81
2021/03/09 02:11:21;;;;;;;12.13;8.02;;;7.30;99.90;;;;;;5005220;28;20038;-81
2021/03/09 02:14:25;;;;;;;9.38;6.80;;;7.30;99.90;;;;;;5007320;28;20018;-81
2021/03/09 02:17:14;;;;;;;9.82;7.18;;;7.30;99.90;;;;;;5010796;28;20556;-81
2021/03/09 02:19:59;;;;;;;9.77;7.50;;;7.30;99.90;;;;;;5007554;28;20037;-81
2021/03/09 02:22:36;;;;;;;10.10;6.68;;;7.30;99.90;;;;;;5010395;28;20149;-81
2021/03/09 02:25:24;;;;;;;10.77;6.65;;;7.30;99.90;;;;;;5009933;28;20029;-81
2021/03/09 02:28:17;;;;;;;11.20;6.32;;;7.20;99.90;;;;;;4971468;28;20053;-82
2021/03/09 02:30:44;;;;;;;7.18;5.53;;;7.20;99.90;;;;;;4958319;28;20605;-82
2021/03/09 02:33:19;;;;;;;8.70;6.63;;;7.30;99.90;;;;;;4977228;28;20031;-82
2021/03/09 02:35:57;;;;;;;8.60;5.40;;;7.30;99.90;;;;;;4971221;28;20034;-81
2021/03/09 02:38:25;;;;;;;8.65;5.93;;;7.30;99.90;;;;;;4975292;28;20038;-81
2021/03/09 02:40:58;;;;;;;8.45;6.00;;;7.30;99.90;;;;;;4971348;28;20484;-81
2021/03/09 02:43:25;;;;;;;8.48;5.65;;;7.30;99.90;;;;;;4971108;28;20392;-82
2021/03/09 02:45:53;;;;;;;8.65;5.30;;;7.20;99.90;;;;;;4971035;28;20039;-82
2021/03/09 02:48:24;;;;;;;7.40;5.35;;;7.20;99.90;;;;;;4973275;28;20066;-81
2021/03/09 02:50:54;;;;;;;7.55;5.72;;;7.20;99.90;;;;;;4953402;28;20045;-82
2021/03/09 02:53:22;;;;;;;8.52;5.43;;;7.20;99.90;;;;;;4958269;28;20043;-81
2021/03/09 02:55:50;;;;;;;7.20;5.47;;;7.20;99.90;;;;;;4957625;28;20538;-82
2021/03/09 02:58:20;;;;;;;7.05;5.70;;;7.20;99.90;;;;;;4970885;28;20035;-82
2021/03/09 03:00:50;;;;;;;6.63;5.90;;;7.20;99.90;;;;;;4970957;28;20030;-81
2021/03/09 03:03:17;;;;;;;7.95;5.82;;;7.10;99.90;;;;;;4968225;28;20038;-81
2021/03/09 03:05:44;;;;;;;7.43;5.13;;;7.10;99.90;;;;;;4998224;28;20038;-81
2021/03/09 03:08:12;;;;;;;7.50;5.68;;;7.10;99.90;;;;;;4997584;28;20368;-81
2021/03/09 03:10:41;;;;;;;8.23;6.18;;;7.10;99.90;;;;;;5004376;28;20029;-81
2021/03/09 03:13:08;;;;;;;7.88;5.72;;;7.10;99.90;;;;;;5027209;28;20395;-81
2021/03/09 03:15:36;;;;;;;8.48;6.07;;;7.10;99.90;;;;;;5004603;28;20030;-82
2021/03/09 03:18:05;;;;;;;7.57;5.22;;;7.10;99.90;;;;;;4992471;28;20075;-82
2021/03/09 03:20:32;;;;;;;8.85;5.63;;;7.10;99.90;;;;;;4999702;28;20072;-81
2021/03/09 03:22:58;;;;;;;8.90;6.15;;;7.10;99.90;;;;;;5020081;28;20600;-81
2021/03/09 03:25:27;;;;;;;6.90;5.70;;;7.10;99.90;;;;;;5003373;28;20098;-81
2021/03/09 03:27:55;;;;;;;7.20;5.47;;;7.10;99.90;;;;;;5005401;28;20022;-82
2021/03/09 03:30:22;;;;;;;8.93;5.65;;;7.10;99.90;;;;;;5000978;28;20031;-81
2021/03/09 03:32:48;;;;;;;7.68;5.78;;;7.00;99.90;;;;;;5003331;28;20363;-81
2021/03/09 03:35:15;;;;;;;10.80;6.05;;;7.00;99.90;;;;;;5006080;28;20490;-81
2021/03/09 03:37:42;;;;;;;7.85;5.47;;;7.00;99.90;;;;;;5003238;28;20033;-81
2021/03/09 03:40:20;;;;;;;8.48;5.68;;;7.00;99.90;;;;;;5003834;28;20081;-81
2021/03/09 03:42:46;;;;;;;9.27;5.80;;;7.00;99.90;;;;;;5003414;28;20023;-81
2021/03/09 03:45:15;;;;;;;7.85;4.75;;;7.00;99.90;;;;;;5000633;28;20031;-81
2021/03/09 03:47:42;;;;;;;7.13;6.40;;;7.00;99.90;;;;;;5003524;28;20117;-82
2021/03/09 03:50:10;;;;;;;6.32;5.07;;;7.00;99.90;;;;;;5011544;28;20061;-82
2021/03/09 03:52:48;;;;;;;9.65;5.47;;;7.00;99.90;;;;;;5012134;28;20025;-82
2021/03/09 03:55:21;;;;;;;10.10;5.53;;;7.00;99.90;;;;;;5006129;28;20105;-82
2021/03/09 03:57:48;;;;;;;6.80;5.10;;;6.90;99.90;;;;;;5027303;28;20026;-84
2021/03/09 04:00:16;;;;;;;7.25;6.25;;;6.90;99.90;;;;;;5006312;28;20014;-82
2021/03/09 04:02:45;;;;;;;6.85;5.00;;;6.90;99.90;;;;;;5008674;28;20072;-84
2021/03/09 04:05:11;;;;;;;8.68;5.60;;;6.90;99.90;;;;;;5011899;28;20018;-83
2021/03/09 04:07:39;;;;;;;9.30;6.45;;;6.90;99.90;;;;;;5008567;28;20053;-82
2021/03/09 04:10:06;;;;;;;7.50;5.85;;;6.80;99.90;;;;;;5001580;28;20021;-81
2021/03/09 04:12:35;;;;;;;8.75;6.97;;;6.90;99.90;;;;;;5003467;28;20022;-81
2021/03/09 04:15:02;;;;;;;8.02;6.00;;;6.90;99.90;;;;;;5006973;28;20033;-81
2021/03/09 04:17:31;;;;;;;12.18;6.40;;;6.90;99.90;;;;;;5006015;28;20109;-80
2021/03/09 04:19:57;;;;;;;8.25;5.80;;;6.90;99.90;;;;;;5004289;28;20033;-81
2021/03/09 04:22:28;;;;;;;9.20;6.53;;;6.90;99.90;;;;;;5006260;28;20034;-80
2021/03/09 04:24:55;;;;;;;10.27;7.35;;;6.90;99.70;;;;;;5007694;28;20022;-81
2021/03/09 04:27:21;;;;;;;9.43;5.35;;;6.90;99.90;;;;;;5003828;28;20114;-80
2021/03/09 04:29:55;;;;;;;10.57;6.50;;;6.90;99.90;;;;;;5005638;28;20076;-81
2021/03/09 04:32:22;;;;;;;5.95;5.32;;;6.90;99.90;;;;;;4999721;28;20498;-80
2021/03/09 04:34:49;;;;;;;9.13;5.00;;;6.90;99.90;;;;;;5008307;28;20042;-80
2021/03/09 04:37:16;;;;;;;7.45;5.38;;;6.90;99.90;;;;;;5013493;28;20022;-81
2021/03/09 04:39:43;;;;;;;6.57;4.63;;;6.90;99.90;;;;;;5008476;28;21301;-80
2021/03/09 04:42:10;;;;;;;9.05;5.72;;;6.80;99.90;;;;;;5001983;28;20397;-80
2021/03/09 04:44:37;;;;;;;5.63;4.95;;;6.80;99.90;;;;;;5005129;28;20029;-80
2021/03/09 04:47:04;;;;;;;5.28;4.47;;;6.80;99.90;;;;;;5005165;28;20033;-80
2021/03/09 04:49:35;;;;;;;7.65;5.35;;;6.80;99.90;;;;;;5006097;28;20050;-80
2021/03/09 04:52:02;;;;;;;6.25;4.47;;;6.80;99.90;;;;;;5008202;28;20042;-80
2021/03/09 04:54:28;;;;;;;6.68;5.22;;;6.80;99.90;;;;;;5005441;28;20367;-80
2021/03/09 04:56:54;;;;;;;6.22;5.07;;;6.80;99.90;;;;;;5004832;28;20048;-80
2021/03/09 04:59:20;;;;;;;7.65;6.38;;;6.80;99.90;;;;;;5004491;28;20030;-80
2021/03/09 05:01:46;;;;;;;10.52;5.43;;;6.80;99.90;;;;;;5008082;28;20072;-80
2021/03/09 05:04:12;;;;;;;6.82;5.05;;;6.80;99.90;;;;;;5010717;28;20029;-80
2021/03/09 05:06:38;;;;;;;8.55;4.70;;;6.80;99.90;;;;;;5003020;28;20030;-80
2021/03/09 05:09:04;;;;;;;8.38;5.15;;;6.70;99.90;;;;;;5002685;28;20051;-80
2021/03/09 05:11:31;;;;;;;6.60;5.15;;;6.70;99.90;;;;;;5009968;28;20104;-80
2021/03/09 05:13:57;;;;;;;7.03;5.32;;;6.80;99.90;;;;;;5001864;28;20369;-80
2021/03/09 05:16:24;;;;;;;8.00;5.80;;;6.70;99.90;;;;;;5004702;28;20483;-80
2021/03/09 05:18:50;;;;;;;8.60;6.30;;;6.80;99.90;;;;;;5004186;28;20113;-80
2021/03/09 05:21:16;;;;;;;7.18;5.90;;;6.80;99.90;;;;;;5006182;28;20018;-80
2021/03/09 05:23:42;;;;;;;7.65;5.78;;;6.80;99.90;;;;;;5003200;28;20024;-80
2021/03/09 05:26:08;;;;;;;9.25;6.00;;;6.80;99.90;;;;;;5004694;28;20034;-80
2021/03/09 05:28:34;;;;;;;8.38;6.65;;;6.80;99.90;;;;;;5008212;28;20076;-80
2021/03/09 05:31:01;;;;;;;7.93;7.10;;;6.80;99.90;;;;;;5002930;28;20041;-80
2021/03/09 05:33:27;;;;;;;9.15;6.63;;;6.80;99.90;;;;;;5012929;28;20374;-80
2021/03/09 05:35:53;;;;;;;9.30;6.75;;;6.80;98.90;;;;;;5006442;28;20457;-80
2021/03/09 05:38:19;;;;;;;9.45;6.75;;;6.70;99.30;;;;;;5007055;28;20050;-80
2021/03/09 05:40:45;;;;;;;11.07;6.90;;;6.70;99.40;;;;;;5007192;28;20446;-80
2021/03/09 05:43:11;;;;;;;8.68;6.55;;;6.80;99.60;;;;;;5005965;28;20421;-80
2021/03/09 05:45:37;;;;;;;11.43;8.25;;;6.80;99.30;;;;;;5007447;28;20018;-80
2021/03/09 05:48:03;;;;;;;10.60;8.75;;;6.80;99.10;;;;;;5004162;28;20114;-80
2021/03/09 05:50:29;;;;;;;11.02;9.60;;;6.80;98.60;;;;;;5003635;28;20048;-80
2021/03/09 05:52:55;;;;;;;11.75;9.25;;;6.80;99.20;;;;;;5006391;28;20030;-80
2021/03/09 05:55:21;;;;;;;14.25;9.43;;;6.80;99.70;;;;;;5005176;28;20048;-80
2021/03/09 05:57:47;;;;;;;13.95;9.57;;;6.80;99.90;;;;;;5000920;28;20025;-81
2021/03/09 06:00:14;;;;;;;13.13;9.63;;;6.80;99.90;;;;;;5002266;28;20383;-80
2021/03/09 06:02:41;;;;;;;11.13;9.25;;;6.80;99.90;;;;;;5009315;28;20026;-81
2021/03/09 06:05:10;;;;;;;12.35;8.48;;;6.80;99.90;;;;;;5009444;28;20026;-81
2021/03/09 06:07:37;;;;;;;13.97;9.13;;;6.80;99.60;;;;;;5011141;28;20029;-81
2021/03/09 06:10:05;;;;;;;11.25;8.75;;;6.80;99.90;;;;;;5007611;28;20034;-80
2021/03/09 06:12:31;;;;;;;13.90;9.75;;;6.80;99.90;;;;;;5005887;28;20033;-81
2021/03/09 06:15:02;;;;;;;12.15;9.48;;;6.80;99.60;;;;;;5011708;28;20022;-81
2021/03/09 06:17:32;;;;;;;14.23;11.25;;;6.80;99.30;;;;;;5001547;28;20398;-81
2021/03/09 06:19:58;;;;;;;13.43;10.32;;;6.80;99.90;;;;;;5003264;28;20026;-81
2021/03/09 06:22:41;;;;;;;16.10;11.25;;;6.70;99.60;;;;;;5005681;28;20037;-81
2021/03/09 06:25:12;;;;;;;12.88;9.45;;;6.70;99.90;;;;;;5009353;28;20101;-82
2021/03/09 06:27:38;;;;;;;12.73;10.07;;;6.70;99.90;;;;;;5009797;28;20482;-81
2021/03/09 06:30:10;;;;;;;13.93;10.38;;;6.70;99.60;;;;;;5011167;28;20034;-82
2021/03/09 06:32:41;;;;;;;16.02;10.27;;;6.70;99.00;;;;;;5009021;28;20048;-82
2021/03/09 06:35:43;;;;;;;11.55;9.98;;;6.70;98.40;;;;;;5012006;28;20032;-82
2021/03/09 06:38:24;;;;;;;12.57;9.75;;;6.70;99.00;;;;;;5007632;28;20076;-82
2021/03/09 06:41:23;;;;;;;15.98;10.23;;;6.70;98.60;;;;;;5006102;28;20042;-81
2021/03/09 06:44:08;;;;;;;15.55;9.25;;;6.70;98.70;;;;;;4968538;28;20122;-82
2021/03/09 06:46:45;;;;;;;13.23;10.38;;;6.70;98.40;;;;;;4970719;28;20082;-82
2021/03/09 06:49:11;;;;;;;14.70;9.90;;;6.70;99.30;;;;;;4970655;28;20102;-81
2021/03/09 06:51:38;;;;;;;13.98;8.57;;;6.70;99.00;;;;;;4954659;28;20125;-82
2021/03/09 06:54:05;;;;;;;12.35;9.90;;;6.80;99.10;;;;;;4970969;28;20031;-82
2021/03/09 06:56:32;;;;;;;16.40;11.07;;;6.80;99.30;;;;;;4969652;28;20046;-82
2021/03/09 06:59:18;;;;;;;16.73;10.80;;;6.80;99.10;;;;;;4970091;28;20028;-81
2021/03/09 07:02:00;;;;;;;11.18;9.75;;;6.80;99.10;;;;;;4963716;28;20019;-81
2021/03/09 07:04:26;;;;;;;13.95;10.13;;;6.80;99.00;;;;;;4967722;28;20510;-82
2021/03/09 07:06:52;;;;;;;17.45;10.85;;;6.90;98.90;;;;;;4969158;28;20054;-81
2021/03/09 07:09:18;;;;;;;14.20;10.73;;;7.00;98.70;;;;;;4972107;28;20046;-81
2021/03/09 07:11:44;;;;;;;13.43;9.82;;;6.90;97.90;;;;;;4970219;28;20139;-82
2021/03/09 07:14:16;;;;;;;17.33;10.70;;;7.00;98.80;;;;;;4967783;28;20086;-81
2021/03/09 07:16:47;;;;;;;13.10;9.63;;;7.10;97.80;;;;;;4970427;28;20037;-81
2021/03/09 07:19:22;;;;;;;12.90;9.93;;;7.10;98.10;;;;;;4987382;28;20084;-80
2021/03/09 07:21:49;;;;;;;13.00;9.35;;;7.20;97.80;;;;;;5009782;28;20505;-80
2021/03/09 07:24:21;;;;;;;14.35;9.18;;;7.40;97.00;;;;;;5011828;28;20026;-81
2021/03/09 07:26:51;;;;;;;14.80;11.73;;;7.70;96.00;;;;;;5012378;28;20033;-81
2021/03/09 07:29:19;;;;;;;15.43;11.52;;;7.70;95.70;;;;;;5011719;28;20065;-78
2021/03/09 07:31:49;;;;;;;15.43;10.73;;;7.70;95.20;;;;;;5011741;28;20033;-80
2021/03/09 07:34:17;;;;;;;16.98;10.35;;;7.60;96.80;;;;;;5011878;28;20105;-80
2021/03/09 07:36:43;;;;;;;24.85;12.38;;;7.50;96.60;;;;;;5026576;28;20062;-82
2021/03/09 07:39:09;;;;;;;15.13;10.50;;;7.30;96.50;;;;;;5011976;28;20552;-82
2021/03/09 07:41:39;;;;;;;19.58;11.30;;;7.30;96.40;;;;;;5012363;28;20034;-81
2021/03/09 07:44:05;;;;;;;14.43;11.07;;;7.20;96.80;;;;;;5012304;28;20034;-81
2021/03/09 07:46:31;;;;;;;15.65;11.02;;;7.20;96.90;;;;;;5012389;28;20108;-81
2021/03/09 07:48:58;;;;;;;14.77;10.95;;;7.20;97.30;;;;;;5011967;28;20026;-81
2021/03/09 07:51:23;;;;;;;18.50;11.45;;;7.20;96.20;;;;;;5003333;28;20046;-81
2021/03/09 07:54:08;;;;;;;18.30;12.02;;;7.20;95.70;;;;;;4996036;28;20022;-81
2021/03/09 07:56:34;;;;;;;17.17;11.93;;;7.20;96.40;;;;;;5004579;28;20072;-82
2021/03/09 07:59:07;;;;;;;18.20;11.00;;;7.20;95.90;;;;;;5005741;28;20034;-81
2021/03/09 08:01:48;;;;;;;15.20;12.48;;;7.20;94.70;;;;;;5004212;28;20030;-82
2021/03/09 08:04:15;;;;;;;14.05;10.90;;;7.20;94.80;;;;;;5014107;28;20034;-81
2021/03/09 08:06:43;;;;;;;15.38;11.45;;;7.10;95.10;;;;;;5011971;28;20025;-82
2021/03/09 08:09:35;;;;;;;17.15;11.90;;;7.10;95.00;;;;;;5008696;28;20475;-82
2021/03/09 08:12:02;;;;;;;13.85;11.75;;;7.10;95.30;;;;;;5010742;28;20038;-81
2021/03/09 08:14:28;;;;;;;17.67;11.80;;;7.20;95.10;;;;;;5013896;28;20393;-78
2021/03/09 08:16:55;;;;;;;14.25;11.15;;;7.20;94.80;;;;;;5009635;28;20026;-75
2021/03/09 08:19:26;;;;;;;19.83;11.30;;;7.30;94.80;;;;;;5008800;28;20030;-75
2021/03/09 08:22:01;;;;;;;18.50;12.10;;;7.30;94.80;;;;;;5004034;28;20029;-74
2021/03/09 08:24:58;;;;;;;15.05;11.32;;;7.30;94.20;;;;;;5009797;28;20112;-75
2021/03/09 08:27:30;;;;;;;15.15;11.68;;;7.40;94.40;;;;;;5011576;28;20065;-75
2021/03/09 08:30:25;;;;;;;19.33;12.90;;;7.40;93.60;;;;;;5009808;28;20107;-75
2021/03/09 08:32:54;;;;;;;16.77;12.18;;;7.50;93.30;;;;;;5011817;28;20021;-77
2021/03/09 08:35:28;;;;;;;19.02;13.35;;;7.50;93.60;;;;;;5012775;28;20431;-77
2021/03/09 08:38:13;;;;;;;19.13;14.20;;;7.60;93.30;;;;;;5013000;28;20052;-74
2021/03/09 08:41:05;;;;;;;17.27;13.25;;;7.60;93.10;;;;;;5013399;28;20022;-75
2021/03/09 08:43:35;;;;;;;20.23;13.68;;;7.60;92.20;;;;;;5014750;28;20041;-75
2021/03/09 08:46:04;;;;;;;22.30;14.00;;;7.60;91.70;;;;;;5014779;28;20030;-75
2021/03/09 08:48:50;;;;;;;17.95;13.60;;;7.70;93.80;;;;;;5013851;28;20277;-75
2021/03/09 08:51:43;;;;;;;19.33;13.65;;;7.80;92.30;;;;;;5013630;28;20057;-74
2021/03/09 08:54:19;;;;;;;17.42;13.00;;;8.00;92.00;;;;;;4994708;28;20151;-74
2021/03/09 08:56:47;;;;;;;19.55;13.57;;;8.30;90.00;;;;;;4994980;28;20034;-75
2021/03/09 08:59:25;;;;;;;19.90;14.40;;;8.80;89.00;;;;;;4995982;28;20022;-74
2021/03/09 09:02:02;;;;;;;18.52;13.77;;;9.70;86.20;;;;;;5014162;28;20033;-74
2021/03/09 09:04:30;;;;;;;23.08;13.18;;;10.10;81.60;;;;;;5014081;28;20029;-74
2021/03/09 09:06:59;;;;;;;18.38;13.60;;;10.40;80.70;;;;;;5012734;28;20109;-74
2021/03/09 09:09:36;;;;;;;19.10;12.98;;;10.00;80.60;;;;;;5014219;28;20040;-74
2021/03/09 09:12:28;;;;;;;17.83;12.90;;;10.00;83.00;;;;;;5014074;28;20030;-74
2021/03/09 09:15:25;;;;;;;14.40;11.18;;;10.60;81.00;;;;;;5014189;28;20480;-74
2021/03/09 09:18:21;;;;;;;14.40;12.45;;;12.00;75.80;;;;;;5014181;28;20018;-75
2021/03/09 09:20:50;;;;;;;18.58;12.55;;;12.70;71.80;;;;;;5013226;28;20042;-74
2021/03/09 09:23:28;;;;;;;14.13;12.23;;;12.80;67.90;;;;;;5013481;28;20079;-74
2021/03/09 09:26:00;;;;;;;19.75;13.23;;;11.50;68.00;;;;;;5013319;28;20084;-75
2021/03/09 09:28:31;;;;;;;16.20;12.70;;;10.80;75.50;;;;;;5013748;28;20026;-74
2021/03/09 09:31:04;;;;;;;23.13;13.35;;;10.60;76.40;;;;;;5013972;28;20030;-75
2021/03/09 09:33:33;;;;;;;20.70;12.50;;;10.10;78.20;;;;;;5013606;28;20105;-75
2021/03/09 09:36:01;;;;;;;14.63;12.03;;;9.80;79.40;;;;;;5013238;28;20018;-74
2021/03/09 09:38:30;;;;;;;16.60;13.55;;;9.90;81.70;;;;;;5012634;28;20281;-75
2021/03/09 09:41:00;;;;;;;15.43;12.60;;;9.80;83.00;;;;;;5011428;28;20026;-77
2021/03/09 09:43:35;;;;;;;16.77;12.35;;;9.80;82.60;;;;;;5003641;28;20033;-77
2021/03/09 09:46:08;;;;;;;19.63;13.23;;;9.90;83.40;;;;;;5003840;28;20038;-77
2021/03/09 09:48:41;;;;;;;21.42;14.13;;;9.70;82.30;;;;;;5012408;28;20108;-77
2021/03/09 09:51:24;;;;;;;15.70;12.52;;;9.50;81.70;;;;;;5012388;28;20137;-77
2021/03/09 09:53:54;;;;;;;15.20;11.93;;;9.50;83.00;;;;;;5012837;28;20383;-77
2021/03/09 09:56:25;;;;;;;20.63;12.90;;;9.60;81.40;;;;;;5012314;28;20014;-77
2021/03/09 09:59:01;;;;;;;17.50;13.68;;;10.00;80.90;;;;;;5012622;28;20084;-76
2021/03/09 10:01:38;;;;;;;17.55;12.73;;;10.40;78.60;;;;;;5012534;28;20037;-76
2021/03/09 10:04:11;;;;;;;15.35;11.73;;;10.40;77.00;;;;;;5012419;28;20033;-76
2021/03/09 10:06:42;;;;;;;17.13;13.55;;;10.40;77.50;;;;;;5013159;28;20053;-77
2021/03/09 10:09:19;;;;;;;20.30;12.98;;;10.80;77.10;;;;;;5013016;28;20440;-76
2021/03/09 10:11:55;;;;;;;18.27;13.32;;;11.00;76.00;;;;;;5012054;28;20104;-76
2021/03/09 10:14:28;;;;;;;16.98;12.75;;;11.10;73.50;;;;;;5012737;28;20053;-76
2021/03/09 10:16:57;;;;;;;15.63;12.45;;;11.60;73.40;;;;;;5012992;28;20032;-77
2021/03/09 10:19:36;;;;;;;14.10;11.90;;;12.60;66.20;;;;;;5012362;28;20037;-76
2021/03/09 10:22:16;;;;;;;18.50;12.30;;;13.50;61.30;;;;;;5012558;28;20026;-74
2021/03/09 10:24:44;;;;;;;;;;;14.00;61.00;;;;;;4993608;28;20084;-74
2021/03/09 10:27:19;;;;;;;16.52;12.52;;;13.80;62.90;;;;;;4993201;28;19995;-74
2021/03/09 10:29:48;;;;;;;16.67;11.85;;;14.60;58.70;;;;;;4993186;28;20034;-74
2021/03/09 10:32:19;;;;;;;15.82;12.38;;;16.60;54.00;;;;;;5002239;28;20052;-74
2021/03/09 10:34:52;;;;;;;15.43;12.65;;;17.40;54.50;;;;;;5027461;28;20390;-74
2021/03/09 10:37:41;;;;;;;15.50;11.45;;;17.90;51.10;;;;;;5012488;28;20037;-74
2021/03/09 10:40:12;;;;;;;16.02;12.15;;;16.70;53.60;;;;;;5012232;28;20367;-73
2021/03/09 10:42:52;;;;;;;13.98;11.70;;;18.00;53.80;;;;;;5012507;28;20029;-74
2021/03/09 10:45:23;;;;;;;16.77;12.93;;;20.20;49.00;;;;;;5012281;28;20112;-74
2021/03/09 10:48:02;;;;;;;17.95;13.95;;;23.30;41.50;;;;;;5012099;28;20080;-74
2021/03/09 10:50:39;;;;;;;17.13;12.57;;;22.10;41.20;;;;;;5012511;28;20030;-75
2021/03/09 10:53:05;;;;;;;16.70;13.68;;;20.20;45.40;;;;;;5012431;28;20524;-74
2021/03/09 10:55:31;;;;;;;16.27;13.90;;;17.70;50.20;;;;;;5012324;28;20034;-74
2021/03/09 10:57:57;;;;;;;18.02;14.40;;;17.30;50.30;;;;;;5012501;28;20036;-74
2021/03/09 11:00:23;;;;;;;15.32;13.25;;;17.90;48.60;;;;;;5012356;28;20072;-74
2021/03/09 11:02:50;;;;;;;15.70;12.52;;;19.00;47.40;;;;;;5011807;28;20033;-74
2021/03/09 11:05:16;;;;;;;15.00;12.23;;;18.30;48.00;;;;;;5011888;28;20030;-74
2021/03/09 11:07:43;;;;;;;16.77;13.57;;;16.80;50.60;;;;;;5012513;28;20781;-73
2021/03/09 11:10:14;;;;;;;17.48;13.27;;;17.70;48.40;;;;;;5012120;28;20052;-74
2021/03/09 11:12:40;;;;;;;13.90;12.45;;;19.50;46.30;;;;;;5012262;28;20026;-75
2021/03/09 11:15:08;;;;;;;20.27;13.30;;;21.00;42.90;;;;;;5012135;28;20402;-74
2021/03/09 11:17:34;;;;;;;15.80;12.73;;;20.90;43.30;;;;;;5012046;28;20057;-74
2021/03/09 11:20:00;;;;;;;12.95;11.48;;;21.70;41.30;;;;;;5012230;28;20030;-74
2021/03/09 11:22:26;;;;;;;14.82;11.38;;;22.30;40.80;;;;;;5012358;28;20030;-74
2021/03/09 11:24:52;;;;;;;16.25;12.43;;;25.00;36.90;;;;;;5015061;28;20033;-74
2021/03/09 11:27:18;;;;;;;12.48;11.18;;;23.90;37.10;;;;;;5016109;28;20037;-74
2021/03/09 11:29:44;;;;;;;12.90;11.52;;;23.60;37.00;;;;;;5016173;28;20057;-74
2021/03/09 11:32:10;;;;;;;15.27;12.50;;;21.80;40.70;;;;;;5007104;28;20026;-74
2021/03/09 11:34:37;;;;;;;14.88;10.88;;;21.00;40.60;;;;;;4995097;28;20494;-74
2021/03/09 11:37:03;;;;;;;15.35;11.43;;;19.90;39.50;;;;;;5005948;28;20028;-74
2021/03/09 11:39:29;;;;;;;12.30;10.60;;;18.80;43.20;;;;;;5015762;28;20104;-74
2021/03/09 11:41:55;;;;;;;13.15;10.18;;;17.10;44.90;;;;;;5015932;28;20034;-74
2021/03/09 11:44:22;;;;;;;12.88;9.88;;;15.40;49.60;;;;;;5015758;28;20052;-74
2021/03/09 11:46:49;;;;;;;14.00;10.20;;;14.20;51.50;;;;;;5015384;28;20032;-74
2021/03/09 11:49:16;;;;;;;13.50;9.60;;;12.80;53.70;;;;;;5015377;28;20030;-74
2021/03/09 11:51:43;;;;;;;12.32;9.75;;;12.30;55.10;;;;;;5015802;28;20030;-74
2021/03/09 11:54:09;;;;;;;13.90;9.63;;;12.00;52.60;;;;;;5015077;28;20486;-74
2021/03/09 11:56:35;;;;;;;14.10;9.68;;;11.70;55.30;;;;;;5015236;28;20080;-73
2021/03/09 11:59:01;;;;;;;14.02;9.20;;;11.80;56.00;;;;;;5015684;28;20105;-74
2021/03/09 12:01:27;;;;;;;11.10;8.63;;;11.80;58.60;;;;;;5015161;28;20026;-74
2021/03/09 12:03:54;;;;;;;16.02;10.20;;;11.50;55.60;;;;;;5015557;28;20057;-74
2021/03/09 12:06:20;;;;;;;14.70;10.05;;;11.70;59.00;;;;;;5015052;28;20030;-74
2021/03/09 12:08:47;;;;;;;12.00;9.93;;;11.50;58.90;;;;;;5015304;28;20042;-74
2021/03/09 12:11:13;;;;;;;15.82;9.98;;;11.50;60.10;;;;;;5014837;28;20439;-74
2021/03/09 12:13:39;;;;;;;14.55;9.02;;;11.50;60.60;;;;;;5015276;28;20033;-73
2021/03/09 12:16:06;;;;;;;12.25;8.43;;;11.20;58.60;;;;;;5015107;28;20037;-74
2021/03/09 12:18:32;;;;;;;13.70;10.38;;;11.00;60.00;;;;;;5014958;28;20025;-74
2021/03/09 12:20:59;;;;;;;13.02;9.20;;;10.90;63.00;;;;;;5015301;28;20067;-73
2021/03/09 12:23:25;;;;;;;15.35;10.38;;;10.90;64.60;;;;;;5014688;28;20417;-74
2021/03/09 12:25:52;;;;;;;15.63;10.77;;;10.80;64.10;;;;;;5014986;28;20082;-74
2021/03/09 12:28:19;;;;;;;12.80;9.98;;;10.60;64.20;;;;;;5014453;28;20386;-73
2021/03/09 12:30:45;;;;;;;16.50;11.93;;;10.40;65.50;;;;;;5014561;28;20021;-74
2021/03/09 12:33:12;;;;;;;18.20;10.50;;;10.20;66.40;;;;;;5014488;28;20029;-74
2021/03/09 12:35:39;;;;;;;15.48;10.57;;;10.00;67.60;;;;;;5013637;28;20026;-74
2021/03/09 12:38:05;;;;;;;13.68;11.00;;;10.00;68.40;;;;;;5014946;28;20044;-74
2021/03/09 12:40:31;;;;;;;13.05;10.23;;;9.90;69.20;;;;;;5014450;28;20026;-74
2021/03/09 12:42:57;;;;;;;14.35;10.10;;;10.00;69.60;;;;;;5014883;28;20516;-73
2021/03/09 12:45:24;;;;;;;16.70;11.32;;;9.90;69.50;;;;;;5014371;28;20053;-74
2021/03/09 12:47:51;;;;;;;13.73;10.95;;;9.80;70.10;;;;;;5014544;28;20041;-74
2021/03/09 12:50:19;;;;;;;15.55;12.02;;;9.60;71.00;;;;;;4994934;28;20077;-76
2021/03/09 12:52:45;;;;;;;17.98;12.25;;;9.50;72.70;;;;;;4994761;28;20514;-75
2021/03/09 12:55:12;;;;;;;19.50;12.10;;;9.60;73.20;;;;;;4995220;28;20026;-75
2021/03/09 12:57:38;;;;;;;18.10;11.65;;;9.60;73.40;;;;;;5012640;28;20026;-76